Terminal Aerodrome Forecast
Issued by NWS

Home | Current Version | Previous Version | Text Only | Print | Product List | Glossary On
Versions: 1 2 3 4 5 6 7 8 9 10 11 12 13 14 15 16 17 18 19 20 21 22 23 24 25 26
000
FTUS43 KDLH 250500
TAFHIB
TAF
KHIB 250522Z 2506/2606 00000KT P6SM VCSH OVC080
     FM251000 09004KT 6SM -RA BR BKN015
     FM251300 05010KT 3SM -RA BR OVC012
     FM251700 05012KT 2SM -RA BR OVC008
     FM252300 35006KT 5SM -SHRA BR OVC012=

USA.gov is the U.S. government's official web portal to all federal, state and local government web resources and services.